Terminal Aerodrome Forecast
Issued by NWS Atlanta, GA

Home | Current Version | Previous Version | Text Only | Print | Product List | Glossary On
Versions: 1 2 3 4 5 6 7 8 9 10 11 12 13 14 15 16 17 18 19 20
000
FTUS42 KFFC 220523
TAFCSG
TAF
KCSG 220523Z 2206/2306 10007KT 5SM -RA BR BKN025
     FM220900 10006KT 3SM -RA BR OVC007
     FM221600 10008KT P6SM VCSH OVC015
     FM222000 09006KT P6SM BKN025
     FM230200 09005KT P6SM BKN015=

USA.gov is the U.S. government's official web portal to all federal, state and local government web resources and services.